sensor_id;sensor_type;location;lat;lon;timestamp;pressure;altitude;pressure_sealevel;temperature;humidity
7524;BME280;3803;51.666;7.630;2022-09-02T00:00:08;101213.72;;;14.82;45.47
7524;BME280;3803;51.666;7.630;2022-09-02T00:00:31;101206.72;;;14.82;45.65
7524;BME280;3803;51.666;7.630;2022-09-02T00:00:55;101211.06;;;14.82;45.82
7524;BME280;3803;51.666;7.630;2022-09-02T00:01:21;101209.34;;;14.82;45.58
7524;BME280;3803;51.666;7.630;2022-09-02T00:01:46;101207.50;;;14.78;45.58
7524;BME280;3803;51.666;7.630;2022-09-02T00:02:07;101210.09;;;14.76;45.76
7524;BME280;3803;51.666;7.630;2022-09-02T00:02:28;101215.41;;;14.78;45.66
7524;BME280;3803;51.666;7.630;2022-09-02T00:02:50;101202.19;;;14.73;45.66
7524;BME280;3803;51.666;7.630;2022-09-02T00:03:11;101215.31;;;14.73;45.46
7524;BME280;3803;51.666;7.630;2022-09-02T00:03:33;101214.50;;;14.76;45.61
7524;BME280;3803;51.666;7.630;2022-09-02T00:03:59;101204.72;;;14.69;45.53
7524;BME280;3803;51.666;7.630;2022-09-02T00:04:23;101207.38;;;14.70;45.62
7524;BME280;3803;51.666;7.630;2022-09-02T00:04:46;101203.78;;;14.65;45.58
7524;BME280;3803;51.666;7.630;2022-09-02T00:05:07;101202.97;;;14.68;45.87
7524;BME280;3803;51.666;7.630;2022-09-02T00:05:28;101205.56;;;14.66;46.02
7524;BME280;3803;51.666;7.630;2022-09-02T00:05:52;101209.16;;;14.71;46.09
7524;BME280;3803;51.666;7.630;2022-09-02T00:06:13;101208.25;;;14.71;45.92
7524;BME280;3803;51.666;7.630;2022-09-02T00:06:37;101213.47;;;14.69;45.92
7524;BME280;3803;51.666;7.630;2022-09-02T00:06:58;101200.31;;;14.66;45.97
7524;BME280;3803;51.666;7.630;2022-09-02T00:07:19;101191.44;;;14.59;45.86
7524;BME280;3803;51.666;7.630;2022-09-02T00:07:39;101202.88;;;14.64;45.89
7524;BME280;3803;51.666;7.630;2022-09-02T00:08:01;101205.56;;;14.66;45.88
7524;BME280;3803;51.666;7.630;2022-09-02T00:08:22;101202.88;;;14.64;45.76
7524;BME280;3803;51.666;7.630;2022-09-02T00:08:43;101212.53;;;14.64;45.82
7524;BME280;3803;51.666;7.630;2022-09-02T00:09:09;101186.09;;;14.55;46.11
7524;BME280;3803;51.666;7.630;2022-09-02T00:09:30;101198.50;;;14.62;46.07
7524;BME280;3803;51.666;7.630;2022-09-02T00:09:51;101205.47;;;14.61;45.87
7524;BME280;3803;51.666;7.630;2022-09-02T00:10:12;101195.91;;;14.65;46.01
7524;BME280;3803;51.666;7.630;2022-09-02T00:10:35;101202.94;;;14.66;46.02
7524;BME280;3803;51.666;7.630;2022-09-02T00:10:58;101205.50;;;14.63;46.04
7524;BME280;3803;51.666;7.630;2022-09-02T00:11:24;101200.25;;;14.64;46.02
7524;BME280;3803;51.666;7.630;2022-09-02T00:11:46;101200.25;;;14.63;45.99
7524;BME280;3803;51.666;7.630;2022-09-02T00:12:07;101195.78;;;14.59;45.89
7524;BME280;3803;51.666;7.630;2022-09-02T00:12:31;101199.38;;;14.64;46.01
7524;BME280;3803;51.666;7.630;2022-09-02T00:12:52;101193.25;;;14.63;46.13
7524;BME280;3803;51.666;7.630;2022-09-02T00:13:15;101186.16;;;14.58;46.06
7524;BME280;3803;51.666;7.630;2022-09-02T00:13:36;101193.28;;;14.65;45.74
7524;BME280;3803;51.666;7.630;2022-09-02T00:14:00;101195.03;;;14.66;45.87
7524;BME280;3803;51.666;7.630;2022-09-02T00:14:26;101198.56;;;14.66;46.03
7524;BME280;3803;51.666;7.630;2022-09-02T00:14:47;101195.09;;;14.69;45.80
7524;BME280;3803;51.666;7.630;2022-09-02T00:15:08;101205.59;;;14.69;45.92
7524;BME280;3803;51.666;7.630;2022-09-02T00:15:32;101204.69;;;14.67;45.52
7524;BME280;3803;51.666;7.630;2022-09-02T00:15:54;101202.19;;;14.73;45.82
7524;BME280;3803;51.666;7.630;2022-09-02T00:16:15;101206.56;;;14.74;45.71
7524;BME280;3803;51.666;7.630;2022-09-02T00:16:38;101203.09;;;14.75;45.82
7524;BME280;3803;51.666;7.630;2022-09-02T00:16:59;101199.63;;;14.78;45.81
7524;BME280;3803;51.666;7.630;2022-09-02T00:17:21;101199.59;;;14.76;45.59
7524;BME280;3803;51.666;7.630;2022-09-02T00:17:42;101191.72;;;14.76;45.77
7524;BME280;3803;51.666;7.630;2022-09-02T00:18:03;101202.34;;;14.83;45.60
7524;BME280;3803;51.666;7.630;2022-09-02T00:18:26;101197.03;;;14.79;45.67
7524;BME280;3803;51.666;7.630;2022-09-02T00:18:47;101205.88;;;14.85;45.47
7524;BME280;3803;51.666;7.630;2022-09-02T00:19:08;101198.81;;;14.80;45.43
7524;BME280;3803;51.666;7.630;2022-09-02T00:19:30;101202.41;;;14.87;45.38
7524;BME280;3803;51.666;7.630;2022-09-02T00:19:51;101194.47;;;14.84;45.34
7524;BME280;3803;51.666;7.630;2022-09-02T00:20:14;101192.69;;;14.82;45.23
7524;BME280;3803;51.666;7.630;2022-09-02T00:20:35;101205.94;;;14.88;45.27
7524;BME280;3803;51.666;7.630;2022-09-02T00:20:58;101202.41;;;14.86;45.24
7524;BME280;3803;51.666;7.630;2022-09-02T00:21:20;101197.06;;;14.83;45.31
7524;BME280;3803;51.666;7.630;2022-09-02T00:21:41;101190.09;;;14.85;45.31
7524;BME280;3803;51.666;7.630;2022-09-02T00:22:02;101199.78;;;14.86;45.38
7524;BME280;3803;51.666;7.630;2022-09-02T00:22:22;101190.09;;;14.85;45.42
7524;BME280;3803;51.666;7.630;2022-09-02T00:22:43;101179.50;;;14.80;45.36
7524;BME280;3803;51.666;7.630;2022-09-02T00:23:06;101198.91;;;14.87;45.48
7524;BME280;3803;51.666;7.630;2022-09-02T00:23:27;101191.81;;;14.83;45.23
7524;BME280;3803;51.666;7.630;2022-09-02T00:23:49;101191.91;;;14.86;45.36
7524;BME280;3803;51.666;7.630;2022-09-02T00:24:10;101195.44;;;14.88;45.30
7524;BME280;3803;51.666;7.630;2022-09-02T00:24:31;101184.84;;;14.85;45.27
7524;BME280;3803;51.666;7.630;2022-09-02T00:24:51;101191.03;;;14.87;45.17
7524;BME280;3803;51.666;7.630;2022-09-02T00:25:12;101189.28;;;14.87;45.17
7524;BME280;3803;51.666;7.630;2022-09-02T00:25:35;101195.56;;;14.97;45.16
7524;BME280;3803;51.666;7.630;2022-09-02T00:25:56;101193.84;;;14.98;45.01
7524;BME280;3803;51.666;7.630;2022-09-02T00:26:18;101192.13;;;15.01;45.17
7524;BME280;3803;51.666;7.630;2022-09-02T00:26:38;101196.44;;;14.96;45.02
7524;BME280;3803;51.666;7.630;2022-09-02T00:27:02;101192.88;;;14.92;45.07
7524;BME280;3803;51.666;7.630;2022-09-02T00:27:22;101191.09;;;14.91;44.85
7524;BME280;3803;51.666;7.630;2022-09-02T00:27:43;101196.47;;;14.98;45.12
7524;BME280;3803;51.666;7.630;2022-09-02T00:28:06;101179.78;;;14.94;44.73
7524;BME280;3803;51.666;7.630;2022-09-02T00:28:27;101185.09;;;15.00;44.85
7524;BME280;3803;51.666;7.630;2022-09-02T00:28:48;101186.94;;;15.04;44.66
7524;BME280;3803;51.666;7.630;2022-09-02T00:29:10;101193.94;;;15.05;44.81
7524;BME280;3803;51.666;7.630;2022-09-02T00:29:32;101187.84;;;15.06;44.75
7524;BME280;3803;51.666;7.630;2022-09-02T00:29:53;101184.31;;;15.04;44.71
7524;BME280;3803;51.666;7.630;2022-09-02T00:30:14;101184.31;;;15.04;44.84
7524;BME280;3803;51.666;7.630;2022-09-02T00:30:34;101186.06;;;15.05;44.53
7524;BME280;3803;51.666;7.630;2022-09-02T00:30:55;101181.72;;;15.07;44.53
7524;BME280;3803;51.666;7.630;2022-09-02T00:31:19;101192.22;;;15.07;44.84
7524;BME280;3803;51.666;7.630;2022-09-02T00:31:42;101178.06;;;14.98;44.48
7524;BME280;3803;51.666;7.630;2022-09-02T00:32:03;101176.28;;;14.95;44.78
7524;BME280;3803;51.666;7.630;2022-09-02T00:32:26;101184.16;;;14.97;44.87
7524;BME280;3803;51.666;7.630;2022-09-02T00:32:47;101170.00;;;14.88;44.69
7524;BME280;3803;51.666;7.630;2022-09-02T00:33:08;101177.06;;;14.91;45.01
7524;BME280;3803;51.666;7.630;2022-09-02T00:33:32;101179.78;;;14.94;44.75
7524;BME280;3803;51.666;7.630;2022-09-02T00:33:53;101182.41;;;14.96;44.96
7524;BME280;3803;51.666;7.630;2022-09-02T00:34:17;101184.13;;;14.93;44.74
7524;BME280;3803;51.666;7.630;2022-09-02T00:34:43;101181.53;;;14.95;44.66
7524;BME280;3803;51.666;7.630;2022-09-02T00:35:09;101178.00;;;14.94;44.74
7524;BME280;3803;51.666;7.630;2022-09-02T00:35:30;101174.50;;;14.96;44.64
7524;BME280;3803;51.666;7.630;2022-09-02T00:35:51;101178.06;;;14.98;44.65
7524;BME280;3803;51.666;7.630;2022-09-02T00:36:12;101168.31;;;14.92;44.64
7524;BME280;3803;51.666;7.630;2022-09-02T00:36:33;101169.19;;;14.91;44.43
7524;BME280;3803;51.666;7.630;2022-09-02T00:36:56;101179.81;;;14.97;44.53
7524;BME280;3803;51.666;7.630;2022-09-02T00:37:17;101175.38;;;14.94;44.80
7524;BME280;3803;51.666;7.630;2022-09-02T00:37:38;101174.50;;;14.94;44.56
7524;BME280;3803;51.666;7.630;2022-09-02T00:37:59;101187.75;;;15.02;44.70
7524;BME280;3803;51.666;7.630;2022-09-02T00:38:20;101173.66;;;14.97;44.45
7524;BME280;3803;51.666;7.630;2022-09-02T00:38:41;101170.19;;;14.98;44.32
7524;BME280;3803;51.666;7.630;2022-09-02T00:39:03;101173.72;;;15.00;44.44
7524;BME280;3803;51.666;7.630;2022-09-02T00:39:25;101169.28;;;14.97;44.56
7524;BME280;3803;51.666;7.630;2022-09-02T00:39:46;101171.06;;;14.98;44.49
7524;BME280;3803;51.666;7.630;2022-09-02T00:40:07;101178.97;;;15.00;44.52
7524;BME280;3803;51.666;7.630;2022-09-02T00:40:29;101175.53;;;15.04;44.64
7524;BME280;3803;51.666;7.630;2022-09-02T00:40:50;101172.88;;;15.02;44.30
7524;BME280;3803;51.666;7.630;2022-09-02T00:41:12;101168.47;;;15.01;44.34
7524;BME280;3803;51.666;7.630;2022-09-02T00:41:33;101168.47;;;15.00;44.63
7524;BME280;3803;51.666;7.630;2022-09-02T00:41:55;101179.00;;;15.03;44.44
7524;BME280;3803;51.666;7.630;2022-09-02T00:42:16;101175.53;;;15.02;44.33
7524;BME280;3803;51.666;7.630;2022-09-02T00:42:37;101174.66;;;15.03;44.33
7524;BME280;3803;51.666;7.630;2022-09-02T00:42:58;101171.06;;;14.98;44.27
7524;BME280;3803;51.666;7.630;2022-09-02T00:43:41;101186.03;;;15.04;44.38
7524;BME280;3803;51.666;7.630;2022-09-02T00:44:09;101179.91;;;15.03;44.49
7524;BME280;3803;51.666;7.630;2022-09-02T00:44:31;101176.34;;;15.01;44.44
7524;BME280;3803;51.666;7.630;2022-09-02T00:44:53;101178.16;;;15.04;44.38
7524;BME280;3803;51.666;7.630;2022-09-02T00:45:14;101179.91;;;15.03;44.38
7524;BME280;3803;51.666;7.630;2022-09-02T00:45:35;101186.06;;;15.05;44.40
7524;BME280;3803;51.666;7.630;2022-09-02T00:45:57;101172.88;;;15.02;44.39
7524;BME280;3803;51.666;7.630;2022-09-02T00:46:21;101171.16;;;15.04;44.51
7524;BME280;3803;51.666;7.630;2022-09-02T00:46:44;101169.41;;;15.03;44.07
7524;BME280;3803;51.666;7.630;2022-09-02T00:47:05;101175.56;;;15.05;44.49
7524;BME280;3803;51.666;7.630;2022-09-02T00:47:26;101173.81;;;15.06;44.20
7524;BME280;3803;51.666;7.630;2022-09-02T00:47:47;101173.75;;;15.03;44.22
7524;BME280;3803;51.666;7.630;2022-09-02T00:48:11;101165.00;;;15.04;43.99
7524;BME280;3803;51.666;7.630;2022-09-02T00:48:34;101180.88;;;15.10;44.16
7524;BME280;3803;51.666;7.630;2022-09-02T00:49:15;101181.81;;;15.14;44.00
7524;BME280;3803;51.666;7.630;2022-09-02T00:49:41;101172.97;;;15.08;43.93
7524;BME280;3803;51.666;7.630;2022-09-02T00:50:07;101176.47;;;15.07;44.06
7524;BME280;3803;51.666;7.630;2022-09-02T00:50:32;101172.06;;;15.06;44.18
7524;BME280;3803;51.666;7.630;2022-09-02T00:50:53;101173.81;;;15.07;44.10
7524;BME280;3803;51.666;7.630;2022-09-02T00:51:16;101170.34;;;15.07;44.03
7524;BME280;3803;51.666;7.630;2022-09-02T00:52:27;101169.44;;;15.06;43.99
7524;BME280;3803;51.666;7.630;2022-09-02T00:52:55;101171.19;;;15.07;43.99
7524;BME280;3803;51.666;7.630;2022-09-02T00:53:21;101180.84;;;15.08;44.06
7524;BME280;3803;51.666;7.630;2022-09-02T00:53:43;101180.91;;;15.13;44.02
7524;BME280;3803;51.666;7.630;2022-09-02T00:54:08;101183.59;;;15.15;43.91
7524;BME280;3803;51.666;7.630;2022-09-02T00:54:33;101173.03;;;15.12;44.17
7524;BME280;3803;51.666;7.630;2022-09-02T00:55:00;101183.59;;;15.15;43.82
7524;BME280;3803;51.666;7.630;2022-09-02T00:55:25;101177.38;;;15.11;43.87
7524;BME280;3803;51.666;7.630;2022-09-02T00:55:48;101171.25;;;15.11;43.98
7524;BME280;3803;51.666;7.630;2022-09-02T00:56:14;101172.16;;;15.13;43.81
7524;BME280;3803;51.666;7.630;2022-09-02T00:56:38;101178.31;;;15.15;43.93
7524;BME280;3803;51.666;7.630;2022-09-02T00:57:00;101172.16;;;15.13;44.02
7524;BME280;3803;51.666;7.630;2022-09-02T00:57:31;101179.22;;;15.17;43.76
7524;BME280;3803;51.666;7.630;2022-09-02T00:58:05;101179.28;;;15.20;43.76
7524;BME280;3803;51.666;7.630;2022-09-02T00:58:30;101173.97;;;15.17;43.46
7524;BME280;3803;51.666;7.630;2022-09-02T00:58:53;101162.56;;;15.15;43.53
7524;BME280;3803;51.666;7.630;2022-09-02T00:59:52;101160.78;;;15.14;43.53
7524;BME280;3803;51.666;7.630;2022-09-02T01:00:23;101168.75;;;15.18;43.58
7524;BME280;3803;51.666;7.630;2022-09-02T01:00:45;101171.28;;;15.12;43.74
7524;BME280;3803;51.666;7.630;2022-09-02T01:01:08;101168.63;;;15.11;43.51
7524;BME280;3803;51.666;7.630;2022-09-02T01:01:30;101175.66;;;15.12;43.60
7524;BME280;3803;51.666;7.630;2022-09-02T01:01:51;101169.50;;;15.10;43.80
7524;BME280;3803;51.666;7.630;2022-09-02T01:02:13;101173.91;;;15.12;43.62
7524;BME280;3803;51.666;7.630;2022-09-02T01:02:39;101166.88;;;15.10;43.76
7524;BME280;3803;51.666;7.630;2022-09-02T01:03:05;101180.94;;;15.15;43.75
7524;BME280;3803;51.666;7.630;2022-09-02T01:03:28;101163.31;;;15.07;43.48
7524;BME280;3803;51.666;7.630;2022-09-02T01:03:50;101168.63;;;15.11;43.74
7524;BME280;3803;51.666;7.630;2022-09-02T01:04:11;101169.50;;;15.11;43.55
7524;BME280;3803;51.666;7.630;2022-09-02T01:04:32;101162.56;;;15.15;43.41
7524;BME280;3803;51.666;7.630;2022-09-02T01:04:53;101165.19;;;15.15;43.47
7524;BME280;3803;51.666;7.630;2022-09-02T01:05:20;101160.78;;;15.14;43.55
7524;BME280;3803;51.666;7.630;2022-09-02T01:05:43;101172.28;;;15.19;43.68
7524;BME280;3803;51.666;7.630;2022-09-02T01:06:04;101167.78;;;15.12;43.46
7524;BME280;3803;51.666;7.630;2022-09-02T01:06:27;101169.63;;;15.19;43.43
7524;BME280;3803;51.666;7.630;2022-09-02T01:06:52;101154.63;;;15.12;43.55
7524;BME280;3803;51.666;7.630;2022-09-02T01:07:13;101168.72;;;15.17;43.59
7524;BME280;3803;51.666;7.630;2022-09-02T01:07:36;101153.69;;;15.08;43.56
7524;BME280;3803;51.666;7.630;2022-09-02T01:07:58;101163.44;;;15.17;43.41
7524;BME280;3803;51.666;7.630;2022-09-02T01:08:23;101156.34;;;15.11;43.63
7524;BME280;3803;51.666;7.630;2022-09-02T01:08:48;101161.69;;;15.16;43.44
7524;BME280;3803;51.666;7.630;2022-09-02T01:09:14;101172.22;;;15.17;43.28
7524;BME280;3803;51.666;7.630;2022-09-02T01:09:35;101166.97;;;15.17;43.44
7524;BME280;3803;51.666;7.630;2022-09-02T01:09:57;101169.72;;;15.22;43.37
7524;BME280;3803;51.666;7.630;2022-09-02T01:10:31;101166.16;;;15.20;43.36
7524;BME280;3803;51.666;7.630;2022-09-02T01:10:56;101167.00;;;15.19;43.35
7524;BME280;3803;51.666;7.630;2022-09-02T01:11:17;101166.16;;;15.20;43.33
7524;BME280;3803;51.666;7.630;2022-09-02T01:11:44;101151.97;;;15.10;43.39
7524;BME280;3803;51.666;7.630;2022-09-02T01:12:07;101160.81;;;15.17;43.56
7524;BME280;3803;51.666;7.630;2022-09-02T01:12:31;101171.41;;;15.20;43.41
7524;BME280;3803;51.666;7.630;2022-09-02T01:12:56;101160.81;;;15.15;43.20
7524;BME280;3803;51.666;7.630;2022-09-02T01:13:23;101174.97;;;15.22;43.44
7524;BME280;3803;51.666;7.630;2022-09-02T01:13:44;101169.63;;;15.20;43.33
7524;BME280;3803;51.666;7.630;2022-09-02T01:14:06;101169.63;;;15.20;43.45
7524;BME280;3803;51.666;7.630;2022-09-02T01:14:31;101171.38;;;15.18;43.20
7524;BME280;3803;51.666;7.630;2022-09-02T01:14:56;101161.69;;;15.14;43.44
7524;BME280;3803;51.666;7.630;2022-09-02T01:15:17;101164.31;;;15.16;43.25
7524;BME280;3803;51.666;7.630;2022-09-02T01:15:41;101175.84;;;15.23;43.27
7524;BME280;3803;51.666;7.630;2022-09-02T01:16:14;101166.97;;;15.17;43.41
7524;BME280;3803;51.666;7.630;2022-09-02T01:16:45;101167.00;;;15.20;43.46
7524;BME280;3803;51.666;7.630;2022-09-02T01:17:07;101169.63;;;15.19;43.25
7524;BME280;3803;51.666;7.630;2022-09-02T01:17:28;101171.41;;;15.20;43.36
7524;BME280;3803;51.666;7.630;2022-09-02T01:17:54;101155.53;;;15.14;43.37
7524;BME280;3803;51.666;7.630;2022-09-02T01:18:21;101168.84;;;15.21;43.41
7524;BME280;3803;51.666;7.630;2022-09-02T01:18:48;101171.41;;;15.20;43.42
7524;BME280;3803;51.666;7.630;2022-09-02T01:19:19;101160.81;;;15.17;43.29
7524;BME280;3803;51.666;7.630;2022-09-02T01:19:47;101171.47;;;15.23;43.43
7524;BME280;3803;51.666;7.630;2022-09-02T01:20:11;101171.47;;;15.23;43.31
7524;BME280;3803;51.666;7.630;2022-09-02T01:20:32;101169.72;;;15.22;43.34
7524;BME280;3803;51.666;7.630;2022-09-02T01:20:55;101160.00;;;15.19;43.29
7524;BME280;3803;51.666;7.630;2022-09-02T01:21:16;101167.94;;;15.21;43.34
7524;BME280;3803;51.666;7.630;2022-09-02T01:21:38;101166.16;;;15.20;43.58
7524;BME280;3803;51.666;7.630;2022-09-02T01:21:58;101176.66;;;15.20;43.37
7524;BME280;3803;51.666;7.630;2022-09-02T01:22:26;101168.78;;;15.20;43.22
7524;BME280;3803;51.666;7.630;2022-09-02T01:22:47;101162.72;;;15.24;43.32
7524;BME280;3803;51.666;7.630;2022-09-02T01:23:10;101159.25;;;15.25;43.28
7524;BME280;3803;51.666;7.630;2022-09-02T01:23:40;101164.50;;;15.27;43.34
7524;BME280;3803;51.666;7.630;2022-09-02T01:24:01;101171.56;;;15.29;43.16
7524;BME280;3803;51.666;7.630;2022-09-02T01:24:29;101172.47;;;15.30;43.07
7524;BME280;3803;51.666;7.630;2022-09-02T01:24:50;101163.66;;;15.26;42.86
7524;BME280;3803;51.666;7.630;2022-09-02T01:25:18;101163.63;;;15.25;43.36
7524;BME280;3803;51.666;7.630;2022-09-02T01:25:42;101160.94;;;15.23;43.23
7524;BME280;3803;51.666;7.630;2022-09-02T01:26:04;101155.63;;;15.20;43.26
7524;BME280;3803;51.666;7.630;2022-09-02T01:26:24;101164.38;;;15.19;43.10
7524;BME280;3803;51.666;7.630;2022-09-02T01:26:47;101161.75;;;15.19;43.30
7524;BME280;3803;51.666;7.630;2022-09-02T01:27:15;101155.53;;;15.14;43.44
7524;BME280;3803;51.666;7.630;2022-09-02T01:27:37;101158.22;;;15.18;43.45
7524;BME280;3803;51.666;7.630;2022-09-02T01:28:04;101168.84;;;15.21;43.37
7524;BME280;3803;51.666;7.630;2022-09-02T01:28:25;101162.63;;;15.19;43.46
7524;BME280;3803;51.666;7.630;2022-09-02T01:28:46;101158.19;;;15.17;43.47
7524;BME280;3803;51.666;7.630;2022-09-02T01:29:08;101167.06;;;15.22;43.56
7524;BME280;3803;51.666;7.630;2022-09-02T01:29:29;101159.06;;;15.14;43.27
7524;BME280;3803;51.666;7.630;2022-09-02T01:29:54;101167.94;;;15.21;43.56
7524;BME280;3803;51.666;7.630;2022-09-02T01:30:21;101144.91;;;15.07;43.56
7524;BME280;3803;51.666;7.630;2022-09-02T01:30:48;101154.66;;;15.15;43.52
7524;BME280;3803;51.666;7.630;2022-09-02T01:31:12;101159.97;;;15.16;43.37
7524;BME280;3803;51.666;7.630;2022-09-02T01:31:33;101156.50;;;15.20;43.50
7524;BME280;3803;51.666;7.630;2022-09-02T01:31:54;101160.84;;;15.18;43.46
7524;BME280;3803;51.666;7.630;2022-09-02T01:32:15;101165.34;;;15.23;43.33
7524;BME280;3803;51.666;7.630;2022-09-02T01:32:36;101165.34;;;15.23;43.58
7524;BME280;3803;51.666;7.630;2022-09-02T01:32:57;101152.09;;;15.18;43.36
7524;BME280;3803;51.666;7.630;2022-09-02T01:33:20;101156.44;;;15.16;43.44
7524;BME280;3803;51.666;7.630;2022-09-02T01:33:41;101159.06;;;15.16;43.40
7524;BME280;3803;51.666;7.630;2022-09-02T01:34:02;101157.34;;;15.18;43.28
7524;BME280;3803;51.666;7.630;2022-09-02T01:34:25;101164.38;;;15.19;43.39
7524;BME280;3803;51.666;7.630;2022-09-02T01:34:46;101160.09;;;15.24;43.22
7524;BME280;3803;51.666;7.630;2022-09-02T01:35:08;101163.59;;;15.23;43.23
7524;BME280;3803;51.666;7.630;2022-09-02T01:35:31;101155.69;;;15.23;43.09
7524;BME280;3803;51.666;7.630;2022-09-02T01:35:52;101170.63;;;15.26;43.17
7524;BME280;3803;51.666;7.630;2022-09-02T01:36:13;101153.94;;;15.22;43.22
7524;BME280;3803;51.666;7.630;2022-09-02T01:36:37;101158.41;;;15.29;42.95
7524;BME280;3803;51.666;7.630;2022-09-02T01:36:58;101154.03;;;15.28;43.06
7524;BME280;3803;51.666;7.630;2022-09-02T01:37:19;101162.88;;;15.35;43.12
7524;BME280;3803;51.666;7.630;2022-09-02T01:37:40;101161.97;;;15.33;43.10
7524;BME280;3803;51.666;7.630;2022-09-02T01:38:03;101155.81;;;15.32;43.04
7524;BME280;3803;51.666;7.630;2022-09-02T01:38:24;101162.00;;;15.36;42.93
7524;BME280;3803;51.666;7.630;2022-09-02T01:38:45;101154.06;;;15.31;43.12
7524;BME280;3803;51.666;7.630;2022-09-02T01:39:07;101158.47;;;15.34;42.90
7524;BME280;3803;51.666;7.630;2022-09-02T01:39:29;101158.44;;;15.32;43.06
7524;BME280;3803;51.666;7.630;2022-09-02T01:39:50;101154.03;;;15.28;43.12
7524;BME280;3803;51.666;7.630;2022-09-02T01:40:15;101147.81;;;15.23;42.91
7524;BME280;3803;51.666;7.630;2022-09-02T01:40:36;101155.72;;;15.25;43.21
7524;BME280;3803;51.666;7.630;2022-09-02T01:40:58;101153.13;;;15.26;43.12
7524;BME280;3803;51.666;7.630;2022-09-02T01:41:19;101152.19;;;15.24;43.42
7524;BME280;3803;51.666;7.630;2022-09-02T01:41:40;101151.31;;;15.22;43.40
7524;BME280;3803;51.666;7.630;2022-09-02T01:42:01;101158.34;;;15.25;43.66
7524;BME280;3803;51.666;7.630;2022-09-02T01:42:22;101161.06;;;15.29;43.38
7524;BME280;3803;51.666;7.630;2022-09-02T01:42:47;101156.59;;;15.24;43.44
7524;BME280;3803;51.666;7.630;2022-09-02T01:43:15;101153.06;;;15.21;43.22
7524;BME280;3803;51.666;7.630;2022-09-02T01:43:39;101151.25;;;15.20;43.42
7524;BME280;3803;51.666;7.630;2022-09-02T01:44:01;101151.25;;;15.20;43.38
7524;BME280;3803;51.666;7.630;2022-09-02T01:44:21;101152.16;;;15.21;43.15
7524;BME280;3803;51.666;7.630;2022-09-02T01:44:46;101157.44;;;15.21;43.26
7524;BME280;3803;51.666;7.630;2022-09-02T01:45:08;101152.16;;;15.21;43.26
7524;BME280;3803;51.666;7.630;2022-09-02T01:45:33;101157.47;;;15.23;43.30
7524;BME280;3803;51.666;7.630;2022-09-02T01:45:56;101156.63;;;15.25;43.42
7524;BME280;3803;51.666;7.630;2022-09-02T01:46:21;101160.94;;;15.23;43.26
7524;BME280;3803;51.666;7.630;2022-09-02T01:46:43;101161.84;;;15.24;43.34
7524;BME280;3803;51.666;7.630;2022-09-02T01:47:04;101147.66;;;15.14;43.06
7524;BME280;3803;51.666;7.630;2022-09-02T01:47:26;101143.28;;;15.16;43.33
7524;BME280;3803;51.666;7.630;2022-09-02T01:47:48;101153.88;;;15.19;43.44
7524;BME280;3803;51.666;7.630;2022-09-02T01:48:09;101155.63;;;15.20;43.24
7524;BME280;3803;51.666;7.630;2022-09-02T01:48:30;101152.09;;;15.18;43.29
7524;BME280;3803;51.666;7.630;2022-09-02T01:48:51;101144.19;;;15.16;43.39
7524;BME280;3803;51.666;7.630;2022-09-02T01:49:12;101158.38;;;15.26;43.22
7524;BME280;3803;51.666;7.630;2022-09-02T01:49:33;101153.97;;;15.24;43.34
7524;BME280;3803;51.666;7.630;2022-09-02T01:49:54;101138.94;;;15.16;43.36
7524;BME280;3803;51.666;7.630;2022-09-02T01:50:17;101154.88;;;15.26;43.24
7524;BME280;3803;51.666;7.630;2022-09-02T01:50:42;101152.19;;;15.24;43.37
7524;BME280;3803;51.666;7.630;2022-09-02T01:51:03;101149.63;;;15.27;43.34
7524;BME280;3803;51.666;7.630;2022-09-02T01:51:24;101158.38;;;15.28;43.33
7524;BME280;3803;51.666;7.630;2022-09-02T01:51:45;101149.56;;;15.24;43.23
7524;BME280;3803;51.666;7.630;2022-09-02T01:52:07;101142.41;;;15.17;43.17
7524;BME280;3803;51.666;7.630;2022-09-02T01:52:28;101157.47;;;15.24;43.27
7524;BME280;3803;51.666;7.630;2022-09-02T01:52:49;101147.81;;;15.21;43.28
7524;BME280;3803;51.666;7.630;2022-09-02T01:53:11;101141.66;;;15.21;43.18
7524;BME280;3803;51.666;7.630;2022-09-02T01:53:32;101146.91;;;15.21;43.14
7524;BME280;3803;51.666;7.630;2022-09-02T01:53:54;101145.19;;;15.21;43.19
7524;BME280;3803;51.666;7.630;2022-09-02T01:54:14;101149.47;;;15.19;43.23
7524;BME280;3803;51.666;7.630;2022-09-02T01:54:35;101146.84;;;15.19;43.01
7524;BME280;3803;51.666;7.630;2022-09-02T01:54:56;101153.94;;;15.22;43.31
7524;BME280;3803;51.666;7.630;2022-09-02T01:55:17;101134.50;;;15.14;43.39
7524;BME280;3803;51.666;7.630;2022-09-02T01:55:38;101146.19;;;15.30;43.24
7524;BME280;3803;51.666;7.630;2022-09-02T01:55:59;101141.75;;;15.27;43.14
7524;BME280;3803;51.666;7.630;2022-09-02T01:56:22;101153.22;;;15.34;43.24
7524;BME280;3803;51.666;7.630;2022-09-02T01:56:45;101144.44;;;15.32;43.13
7524;BME280;3803;51.666;7.630;2022-09-02T01:57:07;101148.00;;;15.35;43.19
7524;BME280;3803;51.666;7.630;2022-09-02T01:57:28;101148.88;;;15.36;43.09
7524;BME280;3803;51.666;7.630;2022-09-02T01:57:49;101148.91;;;15.38;43.12
7524;BME280;3803;51.666;7.630;2022-09-02T01:58:09;101142.69;;;15.32;43.05
7524;BME280;3803;51.666;7.630;2022-09-02T01:58:30;101141.84;;;15.33;43.14
7524;BME280;3803;51.666;7.630;2022-09-02T01:58:51;101139.19;;;15.32;43.07
7524;BME280;3803;51.666;7.630;2022-09-02T01:59:12;101142.75;;;15.35;43.04
7524;BME280;3803;51.666;7.630;2022-09-02T01:59:37;101138.28;;;15.31;43.06
7524;BME280;3803;51.666;7.630;2022-09-02T01:59:58;101126.84;;;15.26;42.94
7524;BME280;3803;51.666;7.630;2022-09-02T02:00:21;101144.47;;;15.33;42.98
7524;BME280;3803;51.666;7.630;2022-09-02T02:00:42;101142.75;;;15.35;43.23
7524;BME280;3803;51.666;7.630;2022-09-02T02:01:03;101148.91;;;15.38;43.17
7524;BME280;3803;51.666;7.630;2022-09-02T02:01:24;101140.09;;;15.35;43.02
7524;BME280;3803;51.666;7.630;2022-09-02T02:01:45;101132.19;;;15.34;43.03
7524;BME280;3803;51.666;7.630;2022-09-02T02:02:07;101138.31;;;15.33;43.20
7524;BME280;3803;51.666;7.630;2022-09-02T02:02:28;101140.03;;;15.32;43.19
7524;BME280;3803;51.666;7.630;2022-09-02T02:02:52;101141.00;;;15.38;42.97
7524;BME280;3803;51.666;7.630;2022-09-02T02:03:13;101133.09;;;15.34;43.23
7524;BME280;3803;51.666;7.630;2022-09-02T02:03:35;101140.97;;;15.36;43.18